sensor_id;sensor_type;location;lat;lon;timestamp;pressure;altitude;pressure_sealevel;temperature;humidity
59272;BME280;45043;51.068;7.026;2023-04-01T00:02:24;98318.72;;;6.46;63.38
59272;BME280;45043;51.068;7.026;2023-04-01T00:05:25;98325.75;;;6.52;63.66
59272;BME280;45043;51.068;7.026;2023-04-01T00:08:26;98325.19;;;6.50;63.51
59272;BME280;45043;51.068;7.026;2023-04-01T00:11:27;98324.16;;;6.51;63.37
59272;BME280;45043;51.068;7.026;2023-04-01T00:14:27;98328.41;;;6.52;63.49
59272;BME280;45043;51.068;7.026;2023-04-01T00:17:29;98326.91;;;6.56;63.24
59272;BME280;45043;51.068;7.026;2023-04-01T00:20:30;98319.81;;;6.56;63.20
59272;BME280;45043;51.068;7.026;2023-04-01T00:23:31;98311.81;;;6.63;62.73
59272;BME280;45043;51.068;7.026;2023-04-01T00:26:32;98312.59;;;6.63;62.56
59272;BME280;45043;51.068;7.026;2023-04-01T00:29:35;98352.84;;;6.59;62.70
59272;BME280;45043;51.068;7.026;2023-04-01T00:32:36;98321.19;;;6.59;62.16
59272;BME280;45043;51.068;7.026;2023-04-01T00:35:37;98323.84;;;6.59;62.53
59272;BME280;45043;51.068;7.026;2023-04-01T00:38:38;98318.91;;;6.62;62.32
59272;BME280;45043;51.068;7.026;2023-04-01T00:41:38;98307.56;;;6.62;62.81
59272;BME280;45043;51.068;7.026;2023-04-01T00:44:40;98306.31;;;6.65;62.55
59272;BME280;45043;51.068;7.026;2023-04-01T00:47:40;98300.22;;;6.64;62.69
59272;BME280;45043;51.068;7.026;2023-04-01T00:50:52;98311.59;;;6.65;62.30
59272;BME280;45043;51.068;7.026;2023-04-01T00:53:55;98319.72;;;6.63;62.73
59272;BME280;45043;51.068;7.026;2023-04-01T00:57:02;98305.97;;;6.61;62.58
59272;BME280;45043;51.068;7.026;2023-04-01T01:00:06;98304.69;;;6.63;62.47
59272;BME280;45043;51.068;7.026;2023-04-01T01:03:09;98313.41;;;6.64;62.39
59272;BME280;45043;51.068;7.026;2023-04-01T01:06:26;98304.94;;;6.62;62.40
59272;BME280;45043;51.068;7.026;2023-04-01T01:09:43;98326.91;;;6.56;63.08
59272;BME280;45043;51.068;7.026;2023-04-01T01:32:55;98302.19;;;6.38;64.39
59272;BME280;45043;51.068;7.026;2023-04-01T01:36:02;98284.31;;;6.41;64.45
59272;BME280;45043;51.068;7.026;2023-04-01T01:39:07;98289.59;;;6.41;64.69
59272;BME280;45043;51.068;7.026;2023-04-01T01:42:13;98278.81;;;6.42;64.16
59272;BME280;45043;51.068;7.026;2023-04-01T01:45:16;98291.19;;;6.42;63.93
59272;BME280;45043;51.068;7.026;2023-04-01T01:48:19;98317.91;;;6.45;63.68
59272;BME280;45043;51.068;7.026;2023-04-01T01:51:21;98304.53;;;6.47;63.67
59272;BME280;45043;51.068;7.026;2023-04-01T01:54:22;98276.53;;;6.46;63.93
59272;BME280;45043;51.068;7.026;2023-04-01T01:57:31;98286.38;;;6.38;63.98
59272;BME280;45043;51.068;7.026;2023-04-01T02:00:34;98293.69;;;6.36;64.52
59272;BME280;45043;51.068;7.026;2023-04-01T02:03:37;98313.19;;;6.35;64.92
59272;BME280;45043;51.068;7.026;2023-04-01T02:06:43;98306.28;;;6.34;64.96
59272;BME280;45043;51.068;7.026;2023-04-01T02:09:45;98298.69;;;6.26;65.44
59272;BME280;45043;51.068;7.026;2023-04-01T02:12:46;98299.59;;;6.20;65.59
59272;BME280;45043;51.068;7.026;2023-04-01T02:15:49;98285.38;;;6.21;65.92
59272;BME280;45043;51.068;7.026;2023-04-01T02:18:53;98303.69;;;6.16;66.09
59272;BME280;45043;51.068;7.026;2023-04-01T02:21:58;98314.69;;;6.13;66.09
59272;BME280;45043;51.068;7.026;2023-04-01T02:25:06;98310.63;;;6.10;66.29
59272;BME280;45043;51.068;7.026;2023-04-01T02:28:09;98297.09;;;6.07;66.42
59272;BME280;45043;51.068;7.026;2023-04-01T02:31:11;98292.84;;;6.06;66.21
59272;BME280;45043;51.068;7.026;2023-04-01T02:34:13;98286.09;;;6.10;66.10
59272;BME280;45043;51.068;7.026;2023-04-01T02:37:14;98293.22;;;6.09;66.15
59272;BME280;45043;51.068;7.026;2023-04-01T02:40:16;98296.50;;;6.05;66.45
59272;BME280;45043;51.068;7.026;2023-04-01T02:43:17;98292.31;;;5.97;66.96
59272;BME280;45043;51.068;7.026;2023-04-01T02:46:19;98298.31;;;5.86;67.28
59272;BME280;45043;51.068;7.026;2023-04-01T02:49:19;98289.25;;;5.82;67.67
59272;BME280;45043;51.068;7.026;2023-04-01T02:52:20;98285.59;;;5.83;68.05
59272;BME280;45043;51.068;7.026;2023-04-01T02:55:21;98298.97;;;5.81;68.42
59272;BME280;45043;51.068;7.026;2023-04-01T02:58:21;98295.78;;;5.79;68.71
59272;BME280;45043;51.068;7.026;2023-04-01T03:01:22;98283.03;;;5.76;68.87
59272;BME280;45043;51.068;7.026;2023-04-01T03:04:23;98293.22;;;5.73;69.16
59272;BME280;45043;51.068;7.026;2023-04-01T03:07:23;98285.50;;;5.71;68.92
59272;BME280;45043;51.068;7.026;2023-04-01T03:10:24;98290.78;;;5.71;69.46
59272;BME280;45043;51.068;7.026;2023-04-01T03:13:24;98288.75;;;5.73;69.45
59272;BME280;45043;51.068;7.026;2023-04-01T03:16:25;98294.38;;;5.77;69.53
59272;BME280;45043;51.068;7.026;2023-04-01T03:19:26;98307.31;;;5.78;69.53
59272;BME280;45043;51.068;7.026;2023-04-01T03:22:26;98297.06;;;5.70;69.45
59272;BME280;45043;51.068;7.026;2023-04-01T03:25:27;98288.59;;;5.68;69.82
59272;BME280;45043;51.068;7.026;2023-04-01T03:28:29;98306.16;;;5.74;69.62
59272;BME280;45043;51.068;7.026;2023-04-01T03:31:29;98301.25;;;5.78;69.46
59272;BME280;45043;51.068;7.026;2023-04-01T03:34:31;98296.78;;;5.78;69.61
59272;BME280;45043;51.068;7.026;2023-04-01T03:37:32;98311.59;;;5.79;69.43
59272;BME280;45043;51.068;7.026;2023-04-01T03:40:32;98314.66;;;5.76;69.31
59272;BME280;45043;51.068;7.026;2023-04-01T03:43:34;98314.47;;;5.71;69.26
59272;BME280;45043;51.068;7.026;2023-04-01T03:46:35;98311.84;;;5.71;69.10
59272;BME280;45043;51.068;7.026;2023-04-01T03:49:35;98307.59;;;5.70;69.20
59272;BME280;45043;51.068;7.026;2023-04-01T03:52:36;98311.28;;;5.69;69.18
59272;BME280;45043;51.068;7.026;2023-04-01T03:55:37;98320.78;;;5.70;69.17
59272;BME280;45043;51.068;7.026;2023-04-01T03:58:39;98313.91;;;5.69;69.34
59272;BME280;45043;51.068;7.026;2023-04-01T04:01:41;98320.78;;;5.70;69.34
59272;BME280;45043;51.068;7.026;2023-04-01T04:04:42;98320.84;;;5.63;69.99
59272;BME280;45043;51.068;7.026;2023-04-01T04:07:43;98328.97;;;5.62;70.16
59272;BME280;45043;51.068;7.026;2023-04-01T04:10:43;98318.44;;;5.62;70.20
59272;BME280;45043;51.068;7.026;2023-04-01T04:13:44;98320.47;;;5.60;70.29
59272;BME280;45043;51.068;7.026;2023-04-01T04:16:44;98326.19;;;5.57;70.85
59272;BME280;45043;51.068;7.026;2023-04-01T04:19:45;98336.50;;;5.58;70.96
59272;BME280;45043;51.068;7.026;2023-04-01T04:22:47;98316.84;;;5.61;70.48
59272;BME280;45043;51.068;7.026;2023-04-01T04:26:01;98328.75;;;5.63;70.65
59272;BME280;45043;51.068;7.026;2023-04-01T04:29:04;98332.63;;;5.61;70.68
59272;BME280;45043;51.068;7.026;2023-04-01T04:32:05;98332.41;;;5.62;71.06
59272;BME280;45043;51.068;7.026;2023-04-01T04:35:06;98331.81;;;5.60;70.98
59272;BME280;45043;51.068;7.026;2023-04-01T04:38:08;98321.06;;;5.62;71.06
59272;BME280;45043;51.068;7.026;2023-04-01T04:41:12;98325.31;;;5.63;71.20
59272;BME280;45043;51.068;7.026;2023-04-01T04:44:15;98315.00;;;5.61;71.32
59272;BME280;45043;51.068;7.026;2023-04-01T04:47:16;98318.44;;;5.62;71.13
59272;BME280;45043;51.068;7.026;2023-04-01T04:50:17;98326.34;;;5.62;71.30
59272;BME280;45043;51.068;7.026;2023-04-01T04:53:18;98322.91;;;5.61;71.38
59272;BME280;45043;51.068;7.026;2023-04-01T04:56:20;98335.69;;;5.58;71.34
59272;BME280;45043;51.068;7.026;2023-04-01T04:59:28;98340.97;;;5.58;71.38
59272;BME280;45043;51.068;7.026;2023-04-01T05:02:40;98329.81;;;5.56;71.60
59272;BME280;45043;51.068;7.026;2023-04-01T05:05:48;98328.22;;;5.55;71.65
59272;BME280;45043;51.068;7.026;2023-04-01T05:08:49;98342.84;;;5.51;71.70
59272;BME280;45043;51.068;7.026;2023-04-01T05:11:49;98330.72;;;5.50;71.98
59272;BME280;45043;51.068;7.026;2023-04-01T05:14:50;98330.91;;;5.48;72.21
59272;BME280;45043;51.068;7.026;2023-04-01T05:17:51;98351.41;;;5.46;72.46
59272;BME280;45043;51.068;7.026;2023-04-01T05:20:54;98350.59;;;5.46;72.59
59272;BME280;45043;51.068;7.026;2023-04-01T05:23:54;98345.91;;;5.48;72.86
59272;BME280;45043;51.068;7.026;2023-04-01T05:26:55;98344.41;;;5.58;72.96
59272;BME280;45043;51.068;7.026;2023-04-01T05:29:58;98343.31;;;5.66;72.65
59272;BME280;45043;51.068;7.026;2023-04-01T05:33:17;98351.16;;;5.73;72.81
59272;BME280;45043;51.068;7.026;2023-04-01T05:36:17;98351.16;;;5.73;72.66
59272;BME280;45043;51.068;7.026;2023-04-01T05:39:18;98360.00;;;5.78;72.90
59272;BME280;45043;51.068;7.026;2023-04-01T05:42:19;98353.75;;;5.79;72.66
59272;BME280;45043;51.068;7.026;2023-04-01T05:45:20;98365.28;;;5.78;72.77
59272;BME280;45043;51.068;7.026;2023-04-01T05:48:55;98361.38;;;5.87;73.57
59272;BME280;45043;51.068;7.026;2023-04-01T05:51:58;98376.47;;;6.35;72.81
59272;BME280;45043;51.068;7.026;2023-04-01T05:54:59;98353.88;;;6.76;71.97
59272;BME280;45043;51.068;7.026;2023-04-01T05:58:00;98363.19;;;7.09;71.09
59272;BME280;45043;51.068;7.026;2023-04-01T06:01:11;98376.44;;;7.32;69.93
59272;BME280;45043;51.068;7.026;2023-04-01T06:04:17;98380.06;;;7.50;69.24
59272;BME280;45043;51.068;7.026;2023-04-01T06:07:19;98374.19;;;7.59;68.75
59272;BME280;45043;51.068;7.026;2023-04-01T06:10:20;98367.41;;;7.75;68.01
59272;BME280;45043;51.068;7.026;2023-04-01T06:30:23;98383.75;;;7.96;65.43
59272;BME280;45043;51.068;7.026;2023-04-01T06:33:39;98387.19;;;7.84;65.20
59272;BME280;45043;51.068;7.026;2023-04-01T06:50:56;98402.47;;;7.71;65.74
59272;BME280;45043;51.068;7.026;2023-04-01T06:54:28;98404.31;;;7.70;65.67
59272;BME280;45043;51.068;7.026;2023-04-01T06:57:55;98404.19;;;7.77;65.70
59272;BME280;45043;51.068;7.026;2023-04-01T07:00:58;98424.19;;;7.84;65.61
59272;BME280;45043;51.068;7.026;2023-04-01T07:07:39;98401.66;;;7.94;64.95
59272;BME280;45043;51.068;7.026;2023-04-01T07:11:01;98401.81;;;7.99;64.78
59272;BME280;45043;51.068;7.026;2023-04-01T07:14:30;98418.81;;;8.03;64.64
59272;BME280;45043;51.068;7.026;2023-04-01T07:17:33;98405.34;;;8.04;64.75
59272;BME280;45043;51.068;7.026;2023-04-01T07:20:37;98425.84;;;8.09;64.72
59272;BME280;45043;51.068;7.026;2023-04-01T07:23:42;98423.19;;;8.09;64.74
59272;BME280;45043;51.068;7.026;2023-04-01T07:27:08;98428.94;;;8.06;64.99
59272;BME280;45043;51.068;7.026;2023-04-01T07:30:17;98425.16;;;8.02;64.83
59272;BME280;45043;51.068;7.026;2023-04-01T07:40:20;98439.28;;;7.96;65.01
59272;BME280;45043;51.068;7.026;2023-04-01T07:47:32;98455.03;;;7.91;65.11
59272;BME280;45043;51.068;7.026;2023-04-01T07:57:19;98457.41;;;7.69;65.83
59272;BME280;45043;51.068;7.026;2023-04-01T08:07:17;98474.56;;;7.48;66.33
59272;BME280;45043;51.068;7.026;2023-04-01T08:14:52;98501.16;;;7.34;66.70
59272;BME280;45043;51.068;7.026;2023-04-01T08:21:47;98481.22;;;7.39;66.82
59272;BME280;45043;51.068;7.026;2023-04-01T08:24:51;98514.97;;;7.37;67.12
59272;BME280;45043;51.068;7.026;2023-04-01T08:28:11;98509.69;;;7.37;67.06
59272;BME280;45043;51.068;7.026;2023-04-01T08:31:24;98496.69;;;7.35;67.31
59272;BME280;45043;51.068;7.026;2023-04-01T08:34:38;98519.75;;;7.28;67.31
59272;BME280;45043;51.068;7.026;2023-04-01T08:37:43;98505.59;;;7.22;67.74
59272;BME280;45043;51.068;7.026;2023-04-01T08:40:59;98510.50;;;7.19;67.79
59272;BME280;45043;51.068;7.026;2023-04-01T09:04:37;98547.84;;;6.17;71.13
59272;BME280;45043;51.068;7.026;2023-04-01T09:11:12;98568.44;;;6.02;71.92
59272;BME280;45043;51.068;7.026;2023-04-01T09:15:12;98549.25;;;5.88;72.64
59272;BME280;45043;51.068;7.026;2023-04-01T09:22:38;98565.88;;;5.88;73.18
59272;BME280;45043;51.068;7.026;2023-04-01T09:25:34;98566.91;;;5.87;73.11
59272;BME280;45043;51.068;7.026;2023-04-01T09:32:06;98578.00;;;5.96;73.50
59272;BME280;45043;51.068;7.026;2023-04-01T09:35:24;98563.47;;;5.87;73.89
59272;BME280;45043;51.068;7.026;2023-04-01T09:38:56;98583.50;;;5.95;73.40
59272;BME280;45043;51.068;7.026;2023-04-01T09:52:10;98599.06;;;5.96;74.17
59272;BME280;45043;51.068;7.026;2023-04-01T09:55:26;98597.47;;;5.95;74.02
59272;BME280;45043;51.068;7.026;2023-04-01T10:19:43;98625.91;;;6.18;73.28
59272;BME280;45043;51.068;7.026;2023-04-01T10:30:34;98634.66;;;6.12;73.51
59272;BME280;45043;51.068;7.026;2023-04-01T10:37:34;98634.91;;;6.04;74.12
59272;BME280;45043;51.068;7.026;2023-04-01T11:10:00;98656.97;;;6.16;74.71
59272;BME280;45043;51.068;7.026;2023-04-01T11:16:51;98667.88;;;6.20;74.76
59272;BME280;45043;51.068;7.026;2023-04-01T11:23:50;98673.22;;;6.13;74.88
59272;BME280;45043;51.068;7.026;2023-04-01T11:41:49;98690.41;;;6.15;74.90
59272;BME280;45043;51.068;7.026;2023-04-01T11:46:07;98678.06;;;6.16;74.79
59272;BME280;45043;51.068;7.026;2023-04-01T12:02:01;98708.38;;;6.32;74.02
59272;BME280;45043;51.068;7.026;2023-04-01T12:05:22;98707.91;;;6.42;74.06
59272;BME280;45043;51.068;7.026;2023-04-01T12:18:42;98720.75;;;6.63;73.10
59272;BME280;45043;51.068;7.026;2023-04-01T12:22:27;98723.81;;;6.60;73.00
59272;BME280;45043;51.068;7.026;2023-04-01T12:29:03;98731.31;;;6.63;72.70
59272;BME280;45043;51.068;7.026;2023-04-01T12:39:22;98725.22;;;6.62;72.29
59272;BME280;45043;51.068;7.026;2023-04-01T12:43:31;98765.34;;;6.71;72.17
59272;BME280;45043;51.068;7.026;2023-04-01T12:49:34;98751.59;;;6.69;71.59
59272;BME280;45043;51.068;7.026;2023-04-01T12:56:09;98800.72;;;6.63;71.83
59272;BME280;45043;51.068;7.026;2023-04-01T13:12:33;98766.13;;;6.78;71.85
59272;BME280;45043;51.068;7.026;2023-04-01T13:15:55;98782.97;;;6.84;71.64
59272;BME280;45043;51.068;7.026;2023-04-01T13:25:54;98781.56;;;6.75;72.06
59272;BME280;45043;51.068;7.026;2023-04-01T13:29:09;98814.44;;;6.85;72.25
59272;BME280;45043;51.068;7.026;2023-04-01T13:32:19;98786.19;;;6.86;72.27
59272;BME280;45043;51.068;7.026;2023-04-01T13:35:32;98783.38;;;6.88;71.89
59272;BME280;45043;51.068;7.026;2023-04-01T13:42:38;98815.47;;;6.84;72.41
59272;BME280;45043;51.068;7.026;2023-04-01T14:00:00;98825.00;;;6.85;71.97
59272;BME280;45043;51.068;7.026;2023-04-01T14:03:32;98830.47;;;6.91;71.80
59272;BME280;45043;51.068;7.026;2023-04-01T14:06:52;98840.00;;;6.92;71.90
59272;BME280;45043;51.068;7.026;2023-04-01T14:10:04;98830.63;;;6.96;72.05
59272;BME280;45043;51.068;7.026;2023-04-01T14:27:31;98846.88;;;6.93;71.32
59272;BME280;45043;51.068;7.026;2023-04-01T14:30:50;98845.47;;;6.90;71.35
59272;BME280;45043;51.068;7.026;2023-04-01T14:34:06;98840.19;;;6.90;71.45
59272;BME280;45043;51.068;7.026;2023-04-01T14:44:11;98856.63;;;6.92;72.00
59272;BME280;45043;51.068;7.026;2023-04-01T14:50:24;98857.25;;;6.94;72.16
59272;BME280;45043;51.068;7.026;2023-04-01T14:56:43;98864.59;;;6.85;72.31
59272;BME280;45043;51.068;7.026;2023-04-01T14:59:50;98857.06;;;6.82;72.78
59272;BME280;45043;51.068;7.026;2023-04-01T15:02:58;98867.28;;;6.72;72.96
59272;BME280;45043;51.068;7.026;2023-04-01T15:13:15;98886.81;;;6.58;73.56
59272;BME280;45043;51.068;7.026;2023-04-01T15:16:41;98902.03;;;6.56;73.66
59272;BME280;45043;51.068;7.026;2023-04-01T15:19:58;98904.25;;;6.59;73.64
59272;BME280;45043;51.068;7.026;2023-04-01T15:26:46;98890.41;;;6.83;73.60
59272;BME280;45043;51.068;7.026;2023-04-01T15:29:59;98898.22;;;6.97;73.43
59272;BME280;45043;51.068;7.026;2023-04-01T15:39:57;98911.41;;;7.03;72.70
59272;BME280;45043;51.068;7.026;2023-04-01T15:49:42;98922.41;;;6.94;72.94
59272;BME280;45043;51.068;7.026;2023-04-01T15:53:07;98921.66;;;6.86;72.90
59272;BME280;45043;51.068;7.026;2023-04-01T15:59:23;98926.13;;;6.79;73.06
59272;BME280;45043;51.068;7.026;2023-04-01T16:02:49;98942.16;;;6.84;72.44
59272;BME280;45043;51.068;7.026;2023-04-01T16:06:10;98938.69;;;6.77;72.35
59272;BME280;45043;51.068;7.026;2023-04-01T16:19:54;98967.13;;;6.89;71.72
59272;BME280;45043;51.068;7.026;2023-04-01T16:22:38;98966.31;;;6.88;72.04
59272;BME280;45043;51.068;7.026;2023-04-01T16:25:44;98963.28;;;6.84;72.07
59272;BME280;45043;51.068;7.026;2023-04-01T16:32:29;98978.72;;;6.74;72.31
59272;BME280;45043;51.068;7.026;2023-04-01T16:35:46;98971.41;;;6.70;72.43
59272;BME280;45043;51.068;7.026;2023-04-01T16:39:00;98967.56;;;6.66;72.69
59272;BME280;45043;51.068;7.026;2023-04-01T16:55:21;98997.06;;;6.43;73.26
59272;BME280;45043;51.068;7.026;2023-04-01T16:58:36;99004.56;;;6.39;73.27
59272;BME280;45043;51.068;7.026;2023-04-01T17:02:00;99014.31;;;6.32;73.39
59272;BME280;45043;51.068;7.026;2023-04-01T17:05:08;99011.06;;;6.30;73.38
59272;BME280;45043;51.068;7.026;2023-04-01T17:11:37;99031.34;;;6.29;73.57
59272;BME280;45043;51.068;7.026;2023-04-01T18:01:15;99102.38;;;6.24;74.43
59272;BME280;45043;51.068;7.026;2023-04-01T18:11:22;99115.31;;;6.06;74.71
59272;BME280;45043;51.068;7.026;2023-04-01T18:15:04;99112.69;;;6.06;74.88
59272;BME280;45043;51.068;7.026;2023-04-01T18:18:29;99111.28;;;6.10;74.88
59272;BME280;45043;51.068;7.026;2023-04-01T18:31:15;99129.13;;;6.14;75.18
59272;BME280;45043;51.068;7.026;2023-04-01T18:37:38;99149.78;;;6.11;75.06
59272;BME280;45043;51.068;7.026;2023-04-01T18:40:50;99160.13;;;6.06;75.01
59272;BME280;45043;51.068;7.026;2023-04-01T18:50:53;99156.28;;;6.02;75.07
59272;BME280;45043;51.068;7.026;2023-04-01T18:54:12;99173.72;;;6.03;74.96
59272;BME280;45043;51.068;7.026;2023-04-01T18:57:18;99176.94;;;6.05;75.05
59272;BME280;45043;51.068;7.026;2023-04-01T19:00:36;99173.31;;;6.06;75.09
59272;BME280;45043;51.068;7.026;2023-04-01T19:03:53;99179.00;;;6.03;74.86
59272;BME280;45043;51.068;7.026;2023-04-01T19:06:58;99180.19;;;6.00;75.35
59272;BME280;45043;51.068;7.026;2023-04-01T19:10:07;99179.38;;;6.00;75.36
59272;BME280;45043;51.068;7.026;2023-04-01T19:16:46;99191.13;;;5.90;75.41
59272;BME280;45043;51.068;7.026;2023-04-01T19:19:56;99191.31;;;5.89;75.66
59272;BME280;45043;51.068;7.026;2023-04-01T19:33:13;99198.97;;;5.77;75.99
59272;BME280;45043;51.068;7.026;2023-04-01T19:45:59;99224.28;;;5.78;76.04
59272;BME280;45043;51.068;7.026;2023-04-01T19:49:38;99215.16;;;5.74;75.91
59272;BME280;45043;51.068;7.026;2023-04-01T19:52:45;99236.66;;;5.78;75.98
59272;BME280;45043;51.068;7.026;2023-04-01T20:06:17;99235.22;;;5.75;75.77
59272;BME280;45043;51.068;7.026;2023-04-01T20:09:41;99235.22;;;5.75;76.30
59272;BME280;45043;51.068;7.026;2023-04-01T20:12:56;99254.25;;;5.71;76.12
59272;BME280;45043;51.068;7.026;2023-04-01T20:16:02;99257.69;;;5.71;76.13
59272;BME280;45043;51.068;7.026;2023-04-01T20:19:04;99259.72;;;5.69;76.26
59272;BME280;45043;51.068;7.026;2023-04-01T20:25:26;99269.03;;;5.65;76.17
59272;BME280;45043;51.068;7.026;2023-04-01T20:28:42;99269.41;;;5.62;76.46
59272;BME280;45043;51.068;7.026;2023-04-01T20:31:44;99271.69;;;5.65;76.93
59272;BME280;45043;51.068;7.026;2023-04-01T20:51:32;99299.25;;;5.69;76.58
59272;BME280;45043;51.068;7.026;2023-04-01T20:58:24;99299.63;;;5.66;76.66
59272;BME280;45043;51.068;7.026;2023-04-01T21:01:32;99302.91;;;5.68;76.46
59272;BME280;45043;51.068;7.026;2023-04-01T21:05:07;99299.25;;;5.69;76.49
59272;BME280;45043;51.068;7.026;2023-04-01T21:08:25;99304.47;;;5.62;76.59
59272;BME280;45043;51.068;7.026;2023-04-01T21:12:05;99309.75;;;5.62;76.73
59272;BME280;45043;51.068;7.026;2023-04-01T21:15:33;99317.03;;;5.60;76.58
59272;BME280;45043;51.068;7.026;2023-04-01T21:25:30;99313.94;;;5.50;76.54
59272;BME280;45043;51.068;7.026;2023-04-01T21:28:42;99323.88;;;5.55;76.80
59272;BME280;45043;51.068;7.026;2023-04-01T21:32:11;99326.91;;;5.52;76.73
59272;BME280;45043;51.068;7.026;2023-04-01T21:35:23;99319.00;;;5.52;77.00
59272;BME280;45043;51.068;7.026;2023-04-01T21:38:43;99329.53;;;5.52;76.86
59272;BME280;45043;51.068;7.026;2023-04-01T21:45:24;99341.31;;;5.56;77.10
59272;BME280;45043;51.068;7.026;2023-04-01T21:55:55;99349.84;;;5.58;76.92
59272;BME280;45043;51.068;7.026;2023-04-01T21:59:25;99352.28;;;5.59;77.24
59272;BME280;45043;51.068;7.026;2023-04-01T22:09:39;99371.06;;;5.78;76.83
59272;BME280;45043;51.068;7.026;2023-04-01T22:12:54;99372.50;;;5.80;77.06
59272;BME280;45043;51.068;7.026;2023-04-01T22:20:14;99375.53;;;5.77;76.73
59272;BME280;45043;51.068;7.026;2023-04-01T22:26:34;99389.34;;;5.79;76.72
59272;BME280;45043;51.068;7.026;2023-04-01T22:36:12;99394.09;;;5.97;76.78
59272;BME280;45043;51.068;7.026;2023-04-01T22:43:11;99401.91;;;6.12;76.54
59272;BME280;45043;51.068;7.026;2023-04-01T22:46:37;99404.78;;;6.17;76.30
59272;BME280;45043;51.068;7.026;2023-04-01T22:49:49;99407.66;;;6.22;76.19
59272;BME280;45043;51.068;7.026;2023-04-01T22:52:59;99416.56;;;6.21;75.92
59272;BME280;45043;51.068;7.026;2023-04-01T22:56:06;99413.75;;;6.23;76.15
59272;BME280;45043;51.068;7.026;2023-04-01T22:59:19;99423.53;;;6.29;75.88
59272;BME280;45043;51.068;7.026;2023-04-01T23:02:22;99421.31;;;6.32;76.02
59272;BME280;45043;51.068;7.026;2023-04-01T23:05:24;99413.22;;;6.41;75.76
59272;BME280;45043;51.068;7.026;2023-04-01T23:11:58;99435.19;;;6.48;75.50
59272;BME280;45043;51.068;7.026;2023-04-01T23:15:01;99453.50;;;6.56;75.11
59272;BME280;45043;51.068;7.026;2023-04-01T23:18:12;99464.09;;;6.62;75.28
59272;BME280;45043;51.068;7.026;2023-04-01T23:21:23;99465.56;;;6.72;74.96
59272;BME280;45043;51.068;7.026;2023-04-01T23:24:40;99473.50;;;6.78;74.68
59272;BME280;45043;51.068;7.026;2023-04-01T23:31:35;99489.75;;;6.82;74.23
59272;BME280;45043;51.068;7.026;2023-04-01T23:34:36;99492.84;;;6.85;74.36
59272;BME280;45043;51.068;7.026;2023-04-01T23:37:37;99496.94;;;6.88;73.96
59272;BME280;45043;51.068;7.026;2023-04-01T23:40:37;99499.19;;;6.91;73.64
59272;BME280;45043;51.068;7.026;2023-04-01T23:43:40;99509.16;;;6.96;73.69
59272;BME280;45043;51.068;7.026;2023-04-01T23:46:44;99514.66;;;7.01;73.45
59272;BME280;45043;51.068;7.026;2023-04-01T23:49:49;99520.56;;;7.03;73.48
59272;BME280;45043;51.068;7.026;2023-04-01T23:53:03;99529.94;;;7.05;73.26
59272;BME280;45043;51.068;7.026;2023-04-01T23:56:05;99537.00;;;7.05;72.91
59272;BME280;45043;51.068;7.026;2023-04-01T23:59:15;99537.22;;;7.03;72.49
